Terminal Aerodrome Forecast
Issued by NWS Topeka, KS

Home | Current Version | Previous Version | Text Only | Print | Product List | Glossary On
Versions: 1 2 3 4 5 6 7 8 9 10 11 12 13 14 15
000
FTUS43 KTOP 202200 AAA
TAFTOP
TAF AMD
KTOP 202233Z 2023/2118 19014G21KT P6SM VCSH SCT080 BKN200
     FM210100 20010KT P6SM VCSH SCT070 BKN140
     FM210600 23006KT P6SM -SHRA VCTS BKN040CB
     FM211400 30008KT P6SM -SHRA SCT020 BKN035=

USA.gov is the U.S. government's official web portal to all federal, state and local government web resources and services.